sensor_id;sensor_type;location;lat;lon;timestamp;pressure;altitude;pressure_sealevel;temperature;humidity
55010;BME280;40903;51.638;7.528;2023-03-22T00:00:06;100500.19;;;11.18;94.06
55010;BME280;40903;51.638;7.528;2023-03-22T00:02:32;100496.88;;;11.21;93.79
55010;BME280;40903;51.638;7.528;2023-03-22T00:04:57;100497.03;;;11.11;94.50
55010;BME280;40903;51.638;7.528;2023-03-22T00:07:22;100496.03;;;11.07;95.15
55010;BME280;40903;51.638;7.528;2023-03-22T00:09:48;100494.19;;;11.02;95.41
55010;BME280;40903;51.638;7.528;2023-03-22T00:12:13;100490.94;;;11.00;95.76
55010;BME280;40903;51.638;7.528;2023-03-22T00:14:38;100494.69;;;11.04;95.99
55010;BME280;40903;51.638;7.528;2023-03-22T00:17:03;100495.19;;;11.06;96.19
55010;BME280;40903;51.638;7.528;2023-03-22T00:19:29;100496.44;;;11.14;96.01
55010;BME280;40903;51.638;7.528;2023-03-22T00:21:54;100495.69;;;11.08;96.25
55010;BME280;40903;51.638;7.528;2023-03-22T00:24:19;100502.28;;;11.07;96.44
55010;BME280;40903;51.638;7.528;2023-03-22T00:26:45;100494.53;;;11.14;96.37
55010;BME280;40903;51.638;7.528;2023-03-22T00:29:11;100485.72;;;11.17;96.12
55010;BME280;40903;51.638;7.528;2023-03-22T00:31:37;100492.53;;;11.20;95.73
55010;BME280;40903;51.638;7.528;2023-03-22T00:34:02;100490.50;;;11.25;95.78
55010;BME280;40903;51.638;7.528;2023-03-22T00:36:27;100485.84;;;11.26;95.79
55010;BME280;40903;51.638;7.528;2023-03-22T00:38:52;100491.53;;;11.29;95.09
55010;BME280;40903;51.638;7.528;2023-03-22T00:41:19;100484.34;;;11.33;94.86
55010;BME280;40903;51.638;7.528;2023-03-22T00:43:45;100491.03;;;11.27;95.19
55010;BME280;40903;51.638;7.528;2023-03-22T00:46:11;100478.38;;;11.31;95.21
55010;BME280;40903;51.638;7.528;2023-03-22T00:48:36;100489.81;;;11.33;94.57
55010;BME280;40903;51.638;7.528;2023-03-22T00:51:02;100482.41;;;11.34;94.75
55010;BME280;40903;51.638;7.528;2023-03-22T00:53:28;100477.06;;;11.29;95.20
55010;BME280;40903;51.638;7.528;2023-03-22T00:55:53;100482.72;;;11.32;95.17
55010;BME280;40903;51.638;7.528;2023-03-22T00:58:19;100467.06;;;11.38;94.50
55010;BME280;40903;51.638;7.528;2023-03-22T01:00:44;100467.59;;;11.40;94.00
55010;BME280;40903;51.638;7.528;2023-03-22T01:03:10;100463.75;;;11.41;94.19
55010;BME280;40903;51.638;7.528;2023-03-22T01:05:38;100458.66;;;11.34;94.92
55010;BME280;40903;51.638;7.528;2023-03-22T01:08:03;100449.97;;;11.32;95.15
55010;BME280;40903;51.638;7.528;2023-03-22T01:10:37;100457.06;;;11.33;95.13
55010;BME280;40903;51.638;7.528;2023-03-22T01:13:04;100451.00;;;11.36;95.44
55010;BME280;40903;51.638;7.528;2023-03-22T01:15:29;100445.03;;;11.34;96.23
55010;BME280;40903;51.638;7.528;2023-03-22T01:17:55;100436.31;;;11.32;96.39
55010;BME280;40903;51.638;7.528;2023-03-22T01:20:20;100436.63;;;11.31;95.90
55010;BME280;40903;51.638;7.528;2023-03-22T01:22:46;100442.06;;;11.31;96.05
55010;BME280;40903;51.638;7.528;2023-03-22T01:25:11;100434.00;;;11.26;95.42
55010;BME280;40903;51.638;7.528;2023-03-22T01:27:36;100437.34;;;11.23;95.50
55010;BME280;40903;51.638;7.528;2023-03-22T01:30:03;100431.75;;;11.14;95.91
55010;BME280;40903;51.638;7.528;2023-03-22T01:32:28;100428.00;;;11.10;96.28
55010;BME280;40903;51.638;7.528;2023-03-22T01:34:54;100428.59;;;11.07;97.00
55010;BME280;40903;51.638;7.528;2023-03-22T01:37:19;100431.09;;;11.04;97.14
55010;BME280;40903;51.638;7.528;2023-03-22T01:39:46;100428.31;;;11.09;96.81
55010;BME280;40903;51.638;7.528;2023-03-22T01:42:14;100428.81;;;11.11;96.78
55010;BME280;40903;51.638;7.528;2023-03-22T01:44:40;100423.75;;;11.18;95.97
55010;BME280;40903;51.638;7.528;2023-03-22T01:47:07;100421.03;;;11.18;95.86
55010;BME280;40903;51.638;7.528;2023-03-22T01:49:33;100419.84;;;11.24;96.19
55010;BME280;40903;51.638;7.528;2023-03-22T01:52:01;100415.78;;;11.21;96.27
55010;BME280;40903;51.638;7.528;2023-03-22T01:54:29;100414.59;;;11.27;95.54
55010;BME280;40903;51.638;7.528;2023-03-22T01:56:58;100415.91;;;11.30;95.17
55010;BME280;40903;51.638;7.528;2023-03-22T01:59:23;100409.53;;;11.34;94.82
55010;BME280;40903;51.638;7.528;2023-03-22T02:01:49;100407.91;;;11.33;95.15
55010;BME280;40903;51.638;7.528;2023-03-22T02:04:14;100399.00;;;11.28;95.39
55010;BME280;40903;51.638;7.528;2023-03-22T02:06:40;100395.88;;;11.21;96.34
55010;BME280;40903;51.638;7.528;2023-03-22T02:09:07;100388.28;;;11.18;96.62
55010;BME280;40903;51.638;7.528;2023-03-22T02:11:34;100389.09;;;11.18;96.86
55010;BME280;40903;51.638;7.528;2023-03-22T02:14:06;100386.16;;;11.15;97.24
55010;BME280;40903;51.638;7.528;2023-03-22T02:17:17;100380.81;;;11.10;97.83
55010;BME280;40903;51.638;7.528;2023-03-22T02:21:55;100372.41;;;11.06;98.57
55010;BME280;40903;51.638;7.528;2023-03-22T02:30:00;100367.34;;;11.00;98.99
55010;BME280;40903;51.638;7.528;2023-03-22T02:40:32;100350.19;;;10.99;98.66
55010;BME280;40903;51.638;7.528;2023-03-22T02:48:16;100350.88;;;10.91;99.40
55010;BME280;40903;51.638;7.528;2023-03-22T02:55:34;100340.28;;;10.90;99.98
55010;BME280;40903;51.638;7.528;2023-03-22T03:00:26;100335.50;;;10.95;99.43
55010;BME280;40903;51.638;7.528;2023-03-22T03:02:53;100330.06;;;10.95;99.18
55010;BME280;40903;51.638;7.528;2023-03-22T03:05:20;100334.00;;;10.89;99.31
55010;BME280;40903;51.638;7.528;2023-03-22T03:07:48;100338.94;;;11.01;99.22
55010;BME280;40903;51.638;7.528;2023-03-22T03:10:15;100332.69;;;11.00;98.51
55010;BME280;40903;51.638;7.528;2023-03-22T03:12:41;100331.09;;;10.99;98.54
55010;BME280;40903;51.638;7.528;2023-03-22T03:15:17;100334.09;;;10.98;98.52
55010;BME280;40903;51.638;7.528;2023-03-22T03:17:53;100329.75;;;10.97;98.71
55010;BME280;40903;51.638;7.528;2023-03-22T03:23:23;100333.72;;;10.91;98.92
55010;BME280;40903;51.638;7.528;2023-03-22T03:26:03;100324.59;;;10.95;98.98
55010;BME280;40903;51.638;7.528;2023-03-22T03:28:35;100328.88;;;11.01;98.60
55010;BME280;40903;51.638;7.528;2023-03-22T03:33:31;100318.97;;;10.92;99.19
55010;BME280;40903;51.638;7.528;2023-03-22T03:36:00;100319.53;;;10.89;100.00
55010;BME280;40903;51.638;7.528;2023-03-22T03:38:28;100318.13;;;10.91;99.54
55010;BME280;40903;51.638;7.528;2023-03-22T03:40:59;100310.47;;;10.93;98.97
55010;BME280;40903;51.638;7.528;2023-03-22T03:43:26;100315.50;;;10.86;99.42
55010;BME280;40903;51.638;7.528;2023-03-22T03:45:52;100311.97;;;10.86;99.33
55010;BME280;40903;51.638;7.528;2023-03-22T03:48:19;100312.97;;;10.76;99.76
55010;BME280;40903;51.638;7.528;2023-03-22T03:50:46;100304.00;;;10.76;100.00
55010;BME280;40903;51.638;7.528;2023-03-22T03:53:12;100312.97;;;10.76;99.89
55010;BME280;40903;51.638;7.528;2023-03-22T03:55:37;100302.97;;;10.72;99.92
55010;BME280;40903;51.638;7.528;2023-03-22T03:58:03;100302.78;;;10.68;100.00
55010;BME280;40903;51.638;7.528;2023-03-22T04:00:28;100305.28;;;10.65;100.00
55010;BME280;40903;51.638;7.528;2023-03-22T04:02:53;100311.34;;;10.62;100.00
55010;BME280;40903;51.638;7.528;2023-03-22T04:05:19;100311.34;;;10.62;100.00
55010;BME280;40903;51.638;7.528;2023-03-22T04:07:45;100301.63;;;10.56;100.00
55010;BME280;40903;51.638;7.528;2023-03-22T04:10:10;100299.28;;;10.49;100.00
55010;BME280;40903;51.638;7.528;2023-03-22T04:12:35;100310.19;;;10.49;100.00
55010;BME280;40903;51.638;7.528;2023-03-22T04:15:00;100311.81;;;10.50;100.00
55010;BME280;40903;51.638;7.528;2023-03-22T04:17:26;100309.38;;;10.49;100.00
55010;BME280;40903;51.638;7.528;2023-03-22T04:19:53;100300.50;;;10.43;100.00
55010;BME280;40903;51.638;7.528;2023-03-22T04:22:20;100299.47;;;10.39;100.00
55010;BME280;40903;51.638;7.528;2023-03-22T04:24:45;100297.88;;;10.38;100.00
55010;BME280;40903;51.638;7.528;2023-03-22T04:27:14;100296.03;;;10.34;100.00
55010;BME280;40903;51.638;7.528;2023-03-22T04:29:40;100292.28;;;10.30;100.00
55010;BME280;40903;51.638;7.528;2023-03-22T04:32:05;100291.38;;;10.34;100.00
55010;BME280;40903;51.638;7.528;2023-03-22T04:34:30;100290.34;;;10.30;100.00
55010;BME280;40903;51.638;7.528;2023-03-22T04:36:56;100289.94;;;10.23;100.00
55010;BME280;40903;51.638;7.528;2023-03-22T04:39:22;100292.34;;;10.25;100.00
55010;BME280;40903;51.638;7.528;2023-03-22T04:41:47;100293.78;;;10.22;100.00
55010;BME280;40903;51.638;7.528;2023-03-22T04:44:13;100288.41;;;10.17;100.00
55010;BME280;40903;51.638;7.528;2023-03-22T04:46:38;100288.91;;;10.19;100.00
55010;BME280;40903;51.638;7.528;2023-03-22T04:49:04;100283.16;;;10.21;100.00
55010;BME280;40903;51.638;7.528;2023-03-22T04:51:29;100285.38;;;10.19;100.00
55010;BME280;40903;51.638;7.528;2023-03-22T04:53:56;100284.63;;;10.32;100.00
55010;BME280;40903;51.638;7.528;2023-03-22T04:56:21;100280.78;;;10.33;100.00
55010;BME280;40903;51.638;7.528;2023-03-22T04:58:46;100284.00;;;10.35;100.00
55010;BME280;40903;51.638;7.528;2023-03-22T05:01:12;100282.31;;;10.39;100.00
55010;BME280;40903;51.638;7.528;2023-03-22T05:03:38;100275.03;;;10.34;100.00
55010;BME280;40903;51.638;7.528;2023-03-22T05:06:04;100276.00;;;10.25;100.00
55010;BME280;40903;51.638;7.528;2023-03-22T05:08:31;100282.88;;;10.22;100.00
55010;BME280;40903;51.638;7.528;2023-03-22T05:10:57;100284.78;;;10.22;100.00
55010;BME280;40903;51.638;7.528;2023-03-22T05:13:23;100270.88;;;10.23;100.00
55010;BME280;40903;51.638;7.528;2023-03-22T05:15:49;100275.88;;;10.16;100.00
55010;BME280;40903;51.638;7.528;2023-03-22T05:18:16;100281.56;;;10.20;100.00
55010;BME280;40903;51.638;7.528;2023-03-22T05:20:41;100276.00;;;10.25;100.00
55010;BME280;40903;51.638;7.528;2023-03-22T05:23:07;100281.38;;;10.30;100.00
55010;BME280;40903;51.638;7.528;2023-03-22T05:25:34;100273.72;;;10.32;100.00
55010;BME280;40903;51.638;7.528;2023-03-22T05:27:59;100286.97;;;10.38;100.00
55010;BME280;40903;51.638;7.528;2023-03-22T05:30:28;100284.94;;;10.44;100.00
55010;BME280;40903;51.638;7.528;2023-03-22T05:32:57;100280.81;;;10.46;100.00
55010;BME280;40903;51.638;7.528;2023-03-22T05:35:24;100287.97;;;10.42;100.00
55010;BME280;40903;51.638;7.528;2023-03-22T05:37:49;100289.59;;;10.57;100.00
55010;BME280;40903;51.638;7.528;2023-03-22T05:40:18;100276.19;;;10.60;100.00
55010;BME280;40903;51.638;7.528;2023-03-22T05:42:44;100284.59;;;10.64;100.00
55010;BME280;40903;51.638;7.528;2023-03-22T05:45:10;100276.91;;;10.66;100.00
55010;BME280;40903;51.638;7.528;2023-03-22T05:47:35;100280.25;;;10.63;100.00
55010;BME280;40903;51.638;7.528;2023-03-22T05:50:03;100282.97;;;10.63;100.00
55010;BME280;40903;51.638;7.528;2023-03-22T05:52:29;100281.75;;;10.69;100.00
55010;BME280;40903;51.638;7.528;2023-03-22T05:54:54;100280.75;;;10.78;100.00
55010;BME280;40903;51.638;7.528;2023-03-22T05:57:20;100283.19;;;10.80;99.60
55010;BME280;40903;51.638;7.528;2023-03-22T05:59:46;100277.00;;;10.74;100.00
55010;BME280;40903;51.638;7.528;2023-03-22T06:02:11;100280.97;;;10.82;100.00
55010;BME280;40903;51.638;7.528;2023-03-22T06:04:37;100275.22;;;10.83;99.61
55010;BME280;40903;51.638;7.528;2023-03-22T06:07:05;100285.00;;;10.84;99.69
55010;BME280;40903;51.638;7.528;2023-03-22T06:09:30;100283.06;;;10.85;99.88
55010;BME280;40903;51.638;7.528;2023-03-22T06:11:56;100276.31;;;10.82;100.00
55010;BME280;40903;51.638;7.528;2023-03-22T06:14:22;100279.16;;;10.91;100.00
55010;BME280;40903;51.638;7.528;2023-03-22T06:16:47;100285.00;;;10.98;99.45
55010;BME280;40903;51.638;7.528;2023-03-22T06:19:12;100279.97;;;11.05;99.15
55010;BME280;40903;51.638;7.528;2023-03-22T06:21:37;100273.28;;;11.11;98.10
55010;BME280;40903;51.638;7.528;2023-03-22T06:24:03;100275.69;;;10.99;99.64
55010;BME280;40903;51.638;7.528;2023-03-22T06:26:28;100264.59;;;11.09;99.14
55010;BME280;40903;51.638;7.528;2023-03-22T06:28:53;100265.09;;;11.11;98.70
55010;BME280;40903;51.638;7.528;2023-03-22T06:31:18;100269.66;;;11.15;97.91
55010;BME280;40903;51.638;7.528;2023-03-22T06:33:44;100260.94;;;11.27;96.98
55010;BME280;40903;51.638;7.528;2023-03-22T06:36:09;100262.25;;;11.29;97.05
55010;BME280;40903;51.638;7.528;2023-03-22T06:38:35;100265.34;;;11.36;96.36
55010;BME280;40903;51.638;7.528;2023-03-22T06:41:00;100264.03;;;11.34;96.62
55010;BME280;40903;51.638;7.528;2023-03-22T06:43:25;100268.66;;;11.47;95.99
55010;BME280;40903;51.638;7.528;2023-03-22T06:45:50;100264.31;;;11.46;95.56
55010;BME280;40903;51.638;7.528;2023-03-22T06:48:16;100273.00;;;11.48;96.36
55010;BME280;40903;51.638;7.528;2023-03-22T06:50:42;100268.38;;;11.48;96.07
55010;BME280;40903;51.638;7.528;2023-03-22T06:53:08;100265.75;;;11.57;95.38
55010;BME280;40903;51.638;7.528;2023-03-22T06:55:33;100257.03;;;11.55;95.08
55010;BME280;40903;51.638;7.528;2023-03-22T06:58:02;100253.59;;;11.63;94.39
55010;BME280;40903;51.638;7.528;2023-03-22T07:00:27;100256.22;;;11.68;94.14
55010;BME280;40903;51.638;7.528;2023-03-22T07:02:53;100261.25;;;11.74;94.23
55010;BME280;40903;51.638;7.528;2023-03-22T07:05:18;100257.56;;;11.78;93.20
55010;BME280;40903;51.638;7.528;2023-03-22T07:07:44;100253.38;;;11.73;93.62
55010;BME280;40903;51.638;7.528;2023-03-22T07:10:10;100251.75;;;11.72;93.76
55010;BME280;40903;51.638;7.528;2023-03-22T07:12:35;100258.63;;;11.69;94.63
55010;BME280;40903;51.638;7.528;2023-03-22T07:15:00;100263.31;;;11.69;94.93
55010;BME280;40903;51.638;7.528;2023-03-22T07:17:26;100255.59;;;11.71;93.96
55010;BME280;40903;51.638;7.528;2023-03-22T07:19:51;100256.28;;;11.76;94.38
55010;BME280;40903;51.638;7.528;2023-03-22T07:22:17;100246.66;;;11.78;94.75
55010;BME280;40903;51.638;7.528;2023-03-22T07:24:45;100236.47;;;11.92;92.74
55010;BME280;40903;51.638;7.528;2023-03-22T07:27:10;100242.34;;;11.99;92.48
55010;BME280;40903;51.638;7.528;2023-03-22T07:29:36;100243.94;;;12.00;92.98
55010;BME280;40903;51.638;7.528;2023-03-22T07:32:01;100228.72;;;12.08;92.07
55010;BME280;40903;51.638;7.528;2023-03-22T07:34:26;100226.97;;;12.12;91.51
55010;BME280;40903;51.638;7.528;2023-03-22T07:36:51;100235.38;;;12.15;90.88
55010;BME280;40903;51.638;7.528;2023-03-22T07:39:16;100238.78;;;12.21;90.10
55010;BME280;40903;51.638;7.528;2023-03-22T07:41:42;100232.13;;;12.13;90.55
55010;BME280;40903;51.638;7.528;2023-03-22T07:44:07;100229.25;;;12.18;89.87
55010;BME280;40903;51.638;7.528;2023-03-22T07:46:32;100231.22;;;12.18;90.77
55010;BME280;40903;51.638;7.528;2023-03-22T07:48:58;100234.72;;;12.18;90.07
55010;BME280;40903;51.638;7.528;2023-03-22T07:51:23;100235.06;;;12.17;91.02
55010;BME280;40903;51.638;7.528;2023-03-22T07:53:48;100234.97;;;12.30;90.36
55010;BME280;40903;51.638;7.528;2023-03-22T07:56:14;100228.13;;;12.41;89.27
55010;BME280;40903;51.638;7.528;2023-03-22T07:58:39;100237.78;;;12.47;87.65
55010;BME280;40903;51.638;7.528;2023-03-22T08:01:05;100231.28;;;12.65;88.12
55010;BME280;40903;51.638;7.528;2023-03-22T08:03:33;100229.19;;;12.93;86.51
55010;BME280;40903;51.638;7.528;2023-03-22T08:05:59;100229.53;;;13.17;83.88
55010;BME280;40903;51.638;7.528;2023-03-22T08:08:27;100225.56;;;13.31;83.65
55010;BME280;40903;51.638;7.528;2023-03-22T08:10:53;100221.38;;;13.42;83.10
55010;BME280;40903;51.638;7.528;2023-03-22T08:13:18;100204.63;;;13.52;81.05
55010;BME280;40903;51.638;7.528;2023-03-22T08:15:43;100221.06;;;13.52;79.52
55010;BME280;40903;51.638;7.528;2023-03-22T08:18:08;100209.28;;;13.52;78.06
55010;BME280;40903;51.638;7.528;2023-03-22T08:20:34;100213.16;;;13.59;77.17
55010;BME280;40903;51.638;7.528;2023-03-22T08:23:01;100218.97;;;13.66;78.32
55010;BME280;40903;51.638;7.528;2023-03-22T08:25:26;100221.53;;;13.71;75.38
55010;BME280;40903;51.638;7.528;2023-03-22T08:27:53;100213.19;;;13.68;75.56
55010;BME280;40903;51.638;7.528;2023-03-22T08:30:18;100217.69;;;13.64;77.74
55010;BME280;40903;51.638;7.528;2023-03-22T08:32:45;100217.84;;;13.67;75.23
55010;BME280;40903;51.638;7.528;2023-03-22T08:35:11;100223.00;;;13.60;74.48
55010;BME280;40903;51.638;7.528;2023-03-22T08:37:36;100228.31;;;13.48;76.30
55010;BME280;40903;51.638;7.528;2023-03-22T08:40:01;100228.63;;;13.55;75.40
55010;BME280;40903;51.638;7.528;2023-03-22T08:42:30;100222.50;;;13.67;75.39
55010;BME280;40903;51.638;7.528;2023-03-22T08:44:55;100221.88;;;13.70;74.42
55010;BME280;40903;51.638;7.528;2023-03-22T08:47:21;100221.72;;;13.83;74.70
55010;BME280;40903;51.638;7.528;2023-03-22T08:49:46;100223.13;;;13.89;71.08
55010;BME280;40903;51.638;7.528;2023-03-22T08:52:11;100216.41;;;13.86;71.79
55010;BME280;40903;51.638;7.528;2023-03-22T08:54:36;100212.84;;;13.86;75.46
55010;BME280;40903;51.638;7.528;2023-03-22T08:57:02;100211.06;;;13.81;72.46
55010;BME280;40903;51.638;7.528;2023-03-22T08:59:27;100219.78;;;13.83;72.25
55010;BME280;40903;51.638;7.528;2023-03-22T09:01:53;100217.66;;;13.89;71.50
55010;BME280;40903;51.638;7.528;2023-03-22T09:04:18;100213.81;;;13.90;69.18
55010;BME280;40903;51.638;7.528;2023-03-22T09:06:43;100233.63;;;13.78;68.36
55010;BME280;40903;51.638;7.528;2023-03-22T09:09:10;100220.09;;;13.65;68.62
55010;BME280;40903;51.638;7.528;2023-03-22T09:11:36;100225.59;;;13.65;70.93
55010;BME280;40903;51.638;7.528;2023-03-22T09:14:02;100229.94;;;13.66;69.95
55010;BME280;40903;51.638;7.528;2023-03-22T09:16:27;100218.97;;;13.66;70.83
55010;BME280;40903;51.638;7.528;2023-03-22T09:18:52;100207.69;;;13.84;70.17
55010;BME280;40903;51.638;7.528;2023-03-22T09:21:18;100215.56;;;14.20;68.58
55010;BME280;40903;51.638;7.528;2023-03-22T09:23:43;100204.69;;;14.40;67.36
55010;BME280;40903;51.638;7.528;2023-03-22T09:26:11;100214.69;;;14.45;64.76
55010;BME280;40903;51.638;7.528;2023-03-22T09:28:36;100211.66;;;14.38;65.57
55010;BME280;40903;51.638;7.528;2023-03-22T09:31:03;100213.31;;;14.22;64.97
55010;BME280;40903;51.638;7.528;2023-03-22T09:33:28;100207.81;;;14.13;66.43
55010;BME280;40903;51.638;7.528;2023-03-22T09:35:58;100198.97;;;14.16;67.70
55010;BME280;40903;51.638;7.528;2023-03-22T09:38:23;100197.97;;;14.29;68.17
55010;BME280;40903;51.638;7.528;2023-03-22T09:40:50;100207.78;;;14.30;65.86
55010;BME280;40903;51.638;7.528;2023-03-22T09:43:17;100215.22;;;14.30;66.44
55010;BME280;40903;51.638;7.528;2023-03-22T09:45:45;100203.94;;;14.31;66.18
55010;BME280;40903;51.638;7.528;2023-03-22T09:48:17;100196.41;;;14.49;66.78
55010;BME280;40903;51.638;7.528;2023-03-22T09:50:45;100195.75;;;14.60;65.03
55010;BME280;40903;51.638;7.528;2023-03-22T09:53:12;100195.63;;;14.86;66.62
55010;BME280;40903;51.638;7.528;2023-03-22T09:55:38;100200.75;;;14.96;63.31
55010;BME280;40903;51.638;7.528;2023-03-22T09:58:06;100194.38;;;15.04;64.73
55010;BME280;40903;51.638;7.528;2023-03-22T10:00:47;100188.69;;;15.09;63.04
55010;BME280;40903;51.638;7.528;2023-03-22T10:05:54;100195.94;;;15.13;62.98
55010;BME280;40903;51.638;7.528;2023-03-22T10:08:24;100196.75;;;15.14;62.92
55010;BME280;40903;51.638;7.528;2023-03-22T10:10:51;100185.31;;;15.12;64.16
55010;BME280;40903;51.638;7.528;2023-03-22T10:18:12;100204.47;;;15.20;64.88
55010;BME280;40903;51.638;7.528;2023-03-22T10:20:44;100185.63;;;15.10;63.85
55010;BME280;40903;51.638;7.528;2023-03-22T10:23:13;100185.16;;;15.08;63.12
55010;BME280;40903;51.638;7.528;2023-03-22T10:25:40;100189.19;;;15.11;62.30
55010;BME280;40903;51.638;7.528;2023-03-22T10:28:20;100200.91;;;15.20;63.49
55010;BME280;40903;51.638;7.528;2023-03-22T10:30:47;100194.13;;;14.97;62.71
55010;BME280;40903;51.638;7.528;2023-03-22T10:33:34;100194.16;;;14.88;63.01
55010;BME280;40903;51.638;7.528;2023-03-22T10:36:01;100183.50;;;14.87;63.53
55010;BME280;40903;51.638;7.528;2023-03-22T10:38:28;100189.81;;;14.87;62.74
55010;BME280;40903;51.638;7.528;2023-03-22T10:40:54;100199.16;;;14.86;59.71
55010;BME280;40903;51.638;7.528;2023-03-22T10:43:31;100207.31;;;14.74;60.35
55010;BME280;40903;51.638;7.528;2023-03-22T10:45:57;100200.97;;;14.82;59.54
55010;BME280;40903;51.638;7.528;2023-03-22T10:48:29;100206.41;;;14.91;59.24
55010;BME280;40903;51.638;7.528;2023-03-22T10:50:57;100205.22;;;15.00;58.17
55010;BME280;40903;51.638;7.528;2023-03-22T10:55:48;100219.56;;;14.77;58.84
55010;BME280;40903;51.638;7.528;2023-03-22T10:58:18;100205.50;;;14.78;59.18
55010;BME280;40903;51.638;7.528;2023-03-22T11:00:47;100219.03;;;14.83;58.05
55010;BME280;40903;51.638;7.528;2023-03-22T11:06:00;100203.13;;;15.26;57.67
55010;BME280;40903;51.638;7.528;2023-03-22T11:08:28;100215.84;;;15.39;56.49
55010;BME280;40903;51.638;7.528;2023-03-22T11:11:04;100206.41;;;15.49;56.18
55010;BME280;40903;51.638;7.528;2023-03-22T11:13:31;100208.41;;;15.60;56.75
55010;BME280;40903;51.638;7.528;2023-03-22T11:15:58;100199.16;;;15.65;55.57
55010;BME280;40903;51.638;7.528;2023-03-22T11:18:29;100191.13;;;15.60;56.18
55010;BME280;40903;51.638;7.528;2023-03-22T11:20:59;100206.34;;;15.57;55.21
55010;BME280;40903;51.638;7.528;2023-03-22T11:23:30;100199.88;;;15.33;56.48
55010;BME280;40903;51.638;7.528;2023-03-22T11:25:58;100198.81;;;15.46;56.17
55010;BME280;40903;51.638;7.528;2023-03-22T11:28:34;100201.50;;;15.54;57.01
55010;BME280;40903;51.638;7.528;2023-03-22T11:31:02;100195.25;;;15.66;56.59
55010;BME280;40903;51.638;7.528;2023-03-22T11:33:28;100198.28;;;15.73;55.64
55010;BME280;40903;51.638;7.528;2023-03-22T11:35:54;100198.31;;;15.84;57.63
55010;BME280;40903;51.638;7.528;2023-03-22T11:40:52;100202.25;;;15.63;54.84
55010;BME280;40903;51.638;7.528;2023-03-22T11:43:19;100186.22;;;15.45;56.46
55010;BME280;40903;51.638;7.528;2023-03-22T11:45:47;100185.31;;;15.41;55.83
55010;BME280;40903;51.638;7.528;2023-03-22T11:48:14;100204.41;;;15.29;56.49
55010;BME280;40903;51.638;7.528;2023-03-22T11:50:41;100191.31;;;15.34;57.99
55010;BME280;40903;51.638;7.528;2023-03-22T11:53:09;100165.03;;;15.45;60.11
55010;BME280;40903;51.638;7.528;2023-03-22T11:55:36;100183.34;;;15.41;58.29
55010;BME280;40903;51.638;7.528;2023-03-22T11:58:02;100183.19;;;15.38;58.90
55010;BME280;40903;51.638;7.528;2023-03-22T12:00:28;100189.56;;;15.30;58.54
55010;BME280;40903;51.638;7.528;2023-03-22T12:02:54;100183.44;;;15.24;57.61
55010;BME280;40903;51.638;7.528;2023-03-22T12:07:47;100181.91;;;15.15;58.54
55010;BME280;40903;51.638;7.528;2023-03-22T12:10:21;100177.59;;;15.05;60.11
55010;BME280;40903;51.638;7.528;2023-03-22T12:12:54;100185.88;;;14.97;60.19
55010;BME280;40903;51.638;7.528;2023-03-22T12:15:23;100176.72;;;14.84;61.51
55010;BME280;40903;51.638;7.528;2023-03-22T12:20:36;100161.84;;;14.65;65.87
55010;BME280;40903;51.638;7.528;2023-03-22T12:23:08;100170.81;;;14.74;67.17
55010;BME280;40903;51.638;7.528;2023-03-22T12:25:36;100155.81;;;14.71;64.95
55010;BME280;40903;51.638;7.528;2023-03-22T12:28:04;100160.31;;;14.76;65.21
55010;BME280;40903;51.638;7.528;2023-03-22T12:30:33;100150.03;;;14.64;64.47
55010;BME280;40903;51.638;7.528;2023-03-22T12:33:03;100147.63;;;14.63;65.92
55010;BME280;40903;51.638;7.528;2023-03-22T12:35:31;100142.81;;;14.60;67.06
55010;BME280;40903;51.638;7.528;2023-03-22T12:37:57;100145.94;;;14.50;67.85
55010;BME280;40903;51.638;7.528;2023-03-22T12:40:27;100137.19;;;14.48;69.85
55010;BME280;40903;51.638;7.528;2023-03-22T12:45:33;100149.03;;;14.40;68.62
55010;BME280;40903;51.638;7.528;2023-03-22T12:48:04;100139.66;;;14.41;69.33
55010;BME280;40903;51.638;7.528;2023-03-22T12:50:35;100131.41;;;14.49;70.92
55010;BME280;40903;51.638;7.528;2023-03-22T12:53:02;100147.34;;;14.56;68.82
55010;BME280;40903;51.638;7.528;2023-03-22T12:55:32;100156.34;;;14.65;68.06
55010;BME280;40903;51.638;7.528;2023-03-22T12:57:59;100152.44;;;14.74;65.73
55010;BME280;40903;51.638;7.528;2023-03-22T13:00:26;100151.41;;;14.79;64.77
55010;BME280;40903;51.638;7.528;2023-03-22T13:03:38;100157.25;;;14.77;64.76
55010;BME280;40903;51.638;7.528;2023-03-22T13:05:42;100164.84;;;14.72;64.83
55010;BME280;40903;51.638;7.528;2023-03-22T13:08:08;100179.91;;;14.66;62.86
55010;BME280;40903;51.638;7.528;2023-03-22T13:13:12;100172.34;;;14.54;67.30
55010;BME280;40903;51.638;7.528;2023-03-22T13:15:39;100169.97;;;14.53;64.58
55010;BME280;40903;51.638;7.528;2023-03-22T13:18:21;100179.97;;;14.49;66.04
55010;BME280;40903;51.638;7.528;2023-03-22T13:20:47;100176.75;;;14.47;64.26
55010;BME280;40903;51.638;7.528;2023-03-22T13:23:30;100176.66;;;14.35;65.22
55010;BME280;40903;51.638;7.528;2023-03-22T13:25:59;100178.13;;;14.24;65.58
55010;BME280;40903;51.638;7.528;2023-03-22T13:28:26;100174.28;;;14.16;67.67
55010;BME280;40903;51.638;7.528;2023-03-22T13:30:56;100176.84;;;14.13;68.64
55010;BME280;40903;51.638;7.528;2023-03-22T13:33:32;100173.63;;;14.11;67.22
55010;BME280;40903;51.638;7.528;2023-03-22T13:36:05;100172.00;;;14.18;65.88
55010;BME280;40903;51.638;7.528;2023-03-22T13:38:36;100173.47;;;14.16;66.06
55010;BME280;40903;51.638;7.528;2023-03-22T13:41:03;100176.34;;;14.11;65.41
55010;BME280;40903;51.638;7.528;2023-03-22T13:50:53;100174.78;;;13.93;65.23
55010;BME280;40903;51.638;7.528;2023-03-22T13:53:22;100174.44;;;13.94;64.40